KFWN

Sussex Airport

Sussex, New Jersey, USA
METAR KFWN 171407Z AUTO VRB04KT 10SM SCT017 04/02 A2975 RMK AO2 T00440022
Observed Flight Rules
Dec-17 @ 14:07 UTC (22 minutes ago) Visual Flight Rules
Wind Visibility Clouds
Variable at 4 knots 10 miles
  • Scattered at 1,700' AGL
Temperatures Readings
Current 4°C / 39°F
Dewpoint 2°C / 36°F
Humidity 87%
Altimeter 29.75" Hg
Pressure 1007 hPa
Elevation 133
METAR KFWN 171407Z AUTO VRB04KT 10SM SCT017 04/02 A2975 RMK AO2 T00440022
Observed Flight Rules
Dec-17 @ 14:07 UTC
(22 minutes ago)
VFR
Wind Visibility
Variable at 4 knots 10 miles
Clouds
  • Scattered at 1,700' AGL
Temperature Dewpoint
4°C / 39°F 2°C / 36°F
Humidity Altimeter Pressure
87% 29.75" Hg 1007 hPa